sensor_id;sensor_type;location;lat;lon;timestamp;P1;durP1;ratioP1;P2;durP2;ratioP2
53503;SDS011;39387;50.998;22.340;2022-10-26T00:01:47;9.15;;;5.75;;
53503;SDS011;39387;50.998;22.340;2022-10-26T00:04:14;11.18;;;5.60;;
53503;SDS011;39387;50.998;22.340;2022-10-26T00:06:41;7.18;;;5.10;;
53503;SDS011;39387;50.998;22.340;2022-10-26T00:09:08;7.55;;;4.60;;
53503;SDS011;39387;50.998;22.340;2022-10-26T00:11:36;7.15;;;4.93;;
53503;SDS011;39387;50.998;22.340;2022-10-26T00:14:04;7.78;;;5.22;;
53503;SDS011;39387;50.998;22.340;2022-10-26T00:16:32;8.15;;;4.97;;
53503;SDS011;39387;50.998;22.340;2022-10-26T00:18:59;7.30;;;4.80;;
53503;SDS011;39387;50.998;22.340;2022-10-26T00:21:27;8.77;;;4.90;;
53503;SDS011;39387;50.998;22.340;2022-10-26T00:23:54;8.88;;;5.47;;
53503;SDS011;39387;50.998;22.340;2022-10-26T00:26:21;7.05;;;4.90;;
53503;SDS011;39387;50.998;22.340;2022-10-26T00:28:51;7.43;;;4.85;;
53503;SDS011;39387;50.998;22.340;2022-10-26T00:31:20;6.82;;;4.65;;
53503;SDS011;39387;50.998;22.340;2022-10-26T00:33:50;7.13;;;4.95;;
53503;SDS011;39387;50.998;22.340;2022-10-26T00:36:18;9.05;;;4.90;;
53503;SDS011;39387;50.998;22.340;2022-10-26T00:38:47;7.57;;;5.00;;
53503;SDS011;39387;50.998;22.340;2022-10-26T00:41:15;6.97;;;4.47;;
53503;SDS011;39387;50.998;22.340;2022-10-26T00:43:43;7.28;;;4.63;;
53503;SDS011;39387;50.998;22.340;2022-10-26T00:46:11;6.70;;;4.38;;
53503;SDS011;39387;50.998;22.340;2022-10-26T00:48:43;5.55;;;3.90;;
53503;SDS011;39387;50.998;22.340;2022-10-26T00:51:13;7.07;;;4.50;;
53503;SDS011;39387;50.998;22.340;2022-10-26T00:53:42;5.75;;;4.40;;
53503;SDS011;39387;50.998;22.340;2022-10-26T00:56:10;6.38;;;4.72;;
53503;SDS011;39387;50.998;22.340;2022-10-26T00:58:38;6.47;;;4.63;;
53503;SDS011;39387;50.998;22.340;2022-10-26T01:01:06;6.13;;;4.13;;
53503;SDS011;39387;50.998;22.340;2022-10-26T01:03:33;7.18;;;4.20;;
53503;SDS011;39387;50.998;22.340;2022-10-26T01:06:03;6.75;;;4.22;;
53503;SDS011;39387;50.998;22.340;2022-10-26T01:08:31;6.93;;;4.47;;
53503;SDS011;39387;50.998;22.340;2022-10-26T01:10:59;7.80;;;4.57;;
53503;SDS011;39387;50.998;22.340;2022-10-26T01:13:27;6.55;;;3.80;;
53503;SDS011;39387;50.998;22.340;2022-10-26T01:15:57;6.88;;;3.72;;
53503;SDS011;39387;50.998;22.340;2022-10-26T01:18:32;5.68;;;3.78;;
53503;SDS011;39387;50.998;22.340;2022-10-26T01:21:09;4.72;;;3.60;;
53503;SDS011;39387;50.998;22.340;2022-10-26T01:23:49;6.25;;;3.95;;
53503;SDS011;39387;50.998;22.340;2022-10-26T01:26:42;6.25;;;3.80;;
53503;SDS011;39387;50.998;22.340;2022-10-26T01:29:27;5.07;;;3.40;;
53503;SDS011;39387;50.998;22.340;2022-10-26T01:32:05;5.25;;;4.00;;
53503;SDS011;39387;50.998;22.340;2022-10-26T01:34:35;4.63;;;3.47;;
53503;SDS011;39387;50.998;22.340;2022-10-26T01:37:05;5.32;;;3.95;;
53503;SDS011;39387;50.998;22.340;2022-10-26T01:39:36;6.25;;;3.80;;
53503;SDS011;39387;50.998;22.340;2022-10-26T01:42:06;6.88;;;4.00;;
53503;SDS011;39387;50.998;22.340;2022-10-26T01:44:35;6.60;;;4.30;;
53503;SDS011;39387;50.998;22.340;2022-10-26T01:47:08;6.07;;;4.07;;
53503;SDS011;39387;50.998;22.340;2022-10-26T01:49:38;8.05;;;3.97;;
53503;SDS011;39387;50.998;22.340;2022-10-26T01:52:07;6.10;;;4.05;;
53503;SDS011;39387;50.998;22.340;2022-10-26T01:54:35;6.47;;;4.43;;
53503;SDS011;39387;50.998;22.340;2022-10-26T01:57:03;5.25;;;3.70;;
53503;SDS011;39387;50.998;22.340;2022-10-26T01:59:42;5.45;;;3.88;;
53503;SDS011;39387;50.998;22.340;2022-10-26T02:02:23;5.60;;;3.55;;
53503;SDS011;39387;50.998;22.340;2022-10-26T02:05:09;5.53;;;3.67;;
53503;SDS011;39387;50.998;22.340;2022-10-26T02:07:55;6.13;;;4.13;;
53503;SDS011;39387;50.998;22.340;2022-10-26T02:10:32;5.88;;;4.18;;
53503;SDS011;39387;50.998;22.340;2022-10-26T02:13:08;6.45;;;4.28;;
53503;SDS011;39387;50.998;22.340;2022-10-26T02:15:41;6.43;;;3.67;;
53503;SDS011;39387;50.998;22.340;2022-10-26T02:18:17;4.78;;;3.65;;
53503;SDS011;39387;50.998;22.340;2022-10-26T02:20:50;5.93;;;3.97;;
53503;SDS011;39387;50.998;22.340;2022-10-26T02:23:21;6.30;;;3.92;;
53503;SDS011;39387;50.998;22.340;2022-10-26T02:25:52;7.35;;;3.83;;
53503;SDS011;39387;50.998;22.340;2022-10-26T02:28:23;5.88;;;4.03;;
53503;SDS011;39387;50.998;22.340;2022-10-26T02:30:54;6.22;;;4.05;;
53503;SDS011;39387;50.998;22.340;2022-10-26T02:33:24;6.20;;;3.72;;
53503;SDS011;39387;50.998;22.340;2022-10-26T02:35:54;6.13;;;3.95;;
53503;SDS011;39387;50.998;22.340;2022-10-26T02:38:25;9.10;;;5.05;;
53503;SDS011;39387;50.998;22.340;2022-10-26T02:40:52;8.85;;;4.55;;
53503;SDS011;39387;50.998;22.340;2022-10-26T02:43:21;8.85;;;4.45;;
53503;SDS011;39387;50.998;22.340;2022-10-26T02:45:50;8.88;;;5.00;;
53503;SDS011;39387;50.998;22.340;2022-10-26T02:48:20;12.45;;;6.28;;
53503;SDS011;39387;50.998;22.340;2022-10-26T02:50:53;13.00;;;5.75;;
53503;SDS011;39387;50.998;22.340;2022-10-26T02:53:25;10.27;;;5.60;;
53503;SDS011;39387;50.998;22.340;2022-10-26T02:55:54;9.15;;;5.53;;
53503;SDS011;39387;50.998;22.340;2022-10-26T02:58:22;8.52;;;4.63;;
53503;SDS011;39387;50.998;22.340;2022-10-26T03:00:52;8.07;;;4.40;;
53503;SDS011;39387;50.998;22.340;2022-10-26T03:03:20;8.57;;;4.78;;
53503;SDS011;39387;50.998;22.340;2022-10-26T03:05:48;8.02;;;4.50;;
53503;SDS011;39387;50.998;22.340;2022-10-26T03:08:17;8.40;;;4.90;;
53503;SDS011;39387;50.998;22.340;2022-10-26T03:10:44;5.80;;;3.88;;
53503;SDS011;39387;50.998;22.340;2022-10-26T03:13:12;7.00;;;4.22;;
53503;SDS011;39387;50.998;22.340;2022-10-26T03:15:39;8.30;;;4.45;;
53503;SDS011;39387;50.998;22.340;2022-10-26T03:18:07;7.90;;;4.78;;
53503;SDS011;39387;50.998;22.340;2022-10-26T03:20:34;7.50;;;4.50;;
53503;SDS011;39387;50.998;22.340;2022-10-26T03:23:02;7.63;;;4.50;;
53503;SDS011;39387;50.998;22.340;2022-10-26T03:25:30;9.13;;;5.40;;
53503;SDS011;39387;50.998;22.340;2022-10-26T03:27:58;9.43;;;5.00;;
53503;SDS011;39387;50.998;22.340;2022-10-26T03:30:26;8.23;;;4.88;;
53503;SDS011;39387;50.998;22.340;2022-10-26T03:32:54;7.65;;;4.82;;
53503;SDS011;39387;50.998;22.340;2022-10-26T03:35:21;7.13;;;4.60;;
53503;SDS011;39387;50.998;22.340;2022-10-26T03:37:49;8.05;;;4.65;;
53503;SDS011;39387;50.998;22.340;2022-10-26T03:40:16;8.55;;;4.93;;
53503;SDS011;39387;50.998;22.340;2022-10-26T03:42:45;8.90;;;5.53;;
53503;SDS011;39387;50.998;22.340;2022-10-26T03:45:12;8.90;;;5.10;;
53503;SDS011;39387;50.998;22.340;2022-10-26T03:47:43;8.73;;;5.05;;
53503;SDS011;39387;50.998;22.340;2022-10-26T03:50:11;7.35;;;4.05;;
53503;SDS011;39387;50.998;22.340;2022-10-26T03:52:40;7.13;;;4.38;;
53503;SDS011;39387;50.998;22.340;2022-10-26T03:55:08;8.60;;;4.93;;
53503;SDS011;39387;50.998;22.340;2022-10-26T03:57:38;8.82;;;5.43;;
53503;SDS011;39387;50.998;22.340;2022-10-26T04:00:09;9.30;;;5.38;;
53503;SDS011;39387;50.998;22.340;2022-10-26T04:05:05;19.05;;;7.05;;
53503;SDS011;39387;50.998;22.340;2022-10-26T04:07:33;13.82;;;6.25;;
53503;SDS011;39387;50.998;22.340;2022-10-26T04:10:01;15.25;;;7.13;;
53503;SDS011;39387;50.998;22.340;2022-10-26T04:12:28;16.08;;;6.93;;
53503;SDS011;39387;50.998;22.340;2022-10-26T04:14:55;18.25;;;7.53;;
53503;SDS011;39387;50.998;22.340;2022-10-26T04:17:24;19.13;;;6.72;;
53503;SDS011;39387;50.998;22.340;2022-10-26T04:19:52;20.02;;;7.97;;
53503;SDS011;39387;50.998;22.340;2022-10-26T04:22:19;17.05;;;7.13;;
53503;SDS011;39387;50.998;22.340;2022-10-26T04:24:46;22.75;;;8.07;;
53503;SDS011;39387;50.998;22.340;2022-10-26T04:27:14;19.60;;;7.38;;
53503;SDS011;39387;50.998;22.340;2022-10-26T04:29:42;16.98;;;6.28;;
53503;SDS011;39387;50.998;22.340;2022-10-26T04:32:09;16.75;;;7.47;;
53503;SDS011;39387;50.998;22.340;2022-10-26T04:34:38;19.23;;;7.05;;
53503;SDS011;39387;50.998;22.340;2022-10-26T04:37:05;19.90;;;7.43;;
53503;SDS011;39387;50.998;22.340;2022-10-26T04:39:32;22.63;;;8.15;;
53503;SDS011;39387;50.998;22.340;2022-10-26T04:42:00;18.17;;;7.72;;
53503;SDS011;39387;50.998;22.340;2022-10-26T04:44:27;18.95;;;7.53;;
53503;SDS011;39387;50.998;22.340;2022-10-26T04:46:55;22.75;;;7.78;;
53503;SDS011;39387;50.998;22.340;2022-10-26T04:49:22;23.42;;;7.65;;
53503;SDS011;39387;50.998;22.340;2022-10-26T04:51:51;23.50;;;8.32;;
53503;SDS011;39387;50.998;22.340;2022-10-26T04:54:18;32.33;;;9.30;;
53503;SDS011;39387;50.998;22.340;2022-10-26T04:56:45;27.55;;;9.25;;
53503;SDS011;39387;50.998;22.340;2022-10-26T04:59:13;25.73;;;9.15;;
53503;SDS011;39387;50.998;22.340;2022-10-26T05:01:40;32.60;;;9.88;;
53503;SDS011;39387;50.998;22.340;2022-10-26T05:04:07;28.38;;;9.02;;
53503;SDS011;39387;50.998;22.340;2022-10-26T05:06:35;27.33;;;9.50;;
53503;SDS011;39387;50.998;22.340;2022-10-26T05:09:04;33.28;;;10.50;;
53503;SDS011;39387;50.998;22.340;2022-10-26T05:11:32;31.08;;;9.50;;
53503;SDS011;39387;50.998;22.340;2022-10-26T05:13:59;33.95;;;10.10;;
53503;SDS011;39387;50.998;22.340;2022-10-26T05:16:26;30.23;;;9.95;;
53503;SDS011;39387;50.998;22.340;2022-10-26T05:18:53;31.98;;;9.95;;
53503;SDS011;39387;50.998;22.340;2022-10-26T05:21:21;30.20;;;10.50;;
53503;SDS011;39387;50.998;22.340;2022-10-26T05:23:48;28.75;;;10.23;;
53503;SDS011;39387;50.998;22.340;2022-10-26T05:26:18;33.60;;;10.40;;
53503;SDS011;39387;50.998;22.340;2022-10-26T05:28:45;28.55;;;9.65;;
53503;SDS011;39387;50.998;22.340;2022-10-26T05:31:13;33.35;;;11.52;;
53503;SDS011;39387;50.998;22.340;2022-10-26T05:33:40;29.92;;;10.75;;
53503;SDS011;39387;50.998;22.340;2022-10-26T05:36:08;30.60;;;10.23;;
53503;SDS011;39387;50.998;22.340;2022-10-26T05:38:35;29.63;;;10.45;;
53503;SDS011;39387;50.998;22.340;2022-10-26T05:41:03;30.63;;;10.45;;
53503;SDS011;39387;50.998;22.340;2022-10-26T05:43:31;28.77;;;11.35;;
53503;SDS011;39387;50.998;22.340;2022-10-26T05:45:59;29.63;;;11.35;;
53503;SDS011;39387;50.998;22.340;2022-10-26T05:48:26;35.40;;;11.32;;
53503;SDS011;39387;50.998;22.340;2022-10-26T05:50:53;36.35;;;12.25;;
53503;SDS011;39387;50.998;22.340;2022-10-26T05:55:52;31.33;;;11.05;;
53503;SDS011;39387;50.998;22.340;2022-10-26T05:58:20;33.08;;;11.48;;
53503;SDS011;39387;50.998;22.340;2022-10-26T06:00:54;34.72;;;11.05;;
53503;SDS011;39387;50.998;22.340;2022-10-26T06:03:34;31.67;;;11.07;;
53503;SDS011;39387;50.998;22.340;2022-10-26T06:06:08;27.27;;;10.70;;
53503;SDS011;39387;50.998;22.340;2022-10-26T06:08:38;29.85;;;12.13;;
53503;SDS011;39387;50.998;22.340;2022-10-26T06:11:08;36.00;;;11.88;;
53503;SDS011;39387;50.998;22.340;2022-10-26T06:13:36;40.60;;;13.40;;
53503;SDS011;39387;50.998;22.340;2022-10-26T06:18:59;33.83;;;11.60;;
53503;SDS011;39387;50.998;22.340;2022-10-26T06:21:34;30.88;;;11.35;;
53503;SDS011;39387;50.998;22.340;2022-10-26T06:24:08;32.15;;;11.25;;
53503;SDS011;39387;50.998;22.340;2022-10-26T06:26:41;34.42;;;12.23;;
53503;SDS011;39387;50.998;22.340;2022-10-26T06:29:15;32.40;;;11.82;;
53503;SDS011;39387;50.998;22.340;2022-10-26T06:31:48;42.05;;;12.70;;
53503;SDS011;39387;50.998;22.340;2022-10-26T06:34:17;39.50;;;13.23;;
53503;SDS011;39387;50.998;22.340;2022-10-26T06:36:48;47.75;;;14.90;;
53503;SDS011;39387;50.998;22.340;2022-10-26T06:39:16;36.35;;;12.98;;
53503;SDS011;39387;50.998;22.340;2022-10-26T06:41:44;40.40;;;14.18;;
53503;SDS011;39387;50.998;22.340;2022-10-26T06:44:18;39.97;;;14.02;;
53503;SDS011;39387;50.998;22.340;2022-10-26T06:46:50;36.33;;;13.05;;
53503;SDS011;39387;50.998;22.340;2022-10-26T06:49:21;39.20;;;12.73;;
53503;SDS011;39387;50.998;22.340;2022-10-26T06:51:50;37.53;;;13.00;;
53503;SDS011;39387;50.998;22.340;2022-10-26T06:54:21;32.63;;;13.03;;
53503;SDS011;39387;50.998;22.340;2022-10-26T06:56:51;38.30;;;13.13;;
53503;SDS011;39387;50.998;22.340;2022-10-26T06:59:22;32.10;;;12.27;;
53503;SDS011;39387;50.998;22.340;2022-10-26T07:01:59;37.28;;;12.98;;
53503;SDS011;39387;50.998;22.340;2022-10-26T07:04:26;33.63;;;12.70;;
53503;SDS011;39387;50.998;22.340;2022-10-26T07:06:53;32.97;;;11.88;;
53503;SDS011;39387;50.998;22.340;2022-10-26T07:09:21;34.08;;;11.50;;
53503;SDS011;39387;50.998;22.340;2022-10-26T07:11:49;34.08;;;13.15;;
53503;SDS011;39387;50.998;22.340;2022-10-26T07:14:16;38.28;;;12.70;;
53503;SDS011;39387;50.998;22.340;2022-10-26T07:16:43;39.22;;;13.55;;
53503;SDS011;39387;50.998;22.340;2022-10-26T07:19:12;34.65;;;12.85;;
53503;SDS011;39387;50.998;22.340;2022-10-26T07:21:39;34.63;;;12.27;;
53503;SDS011;39387;50.998;22.340;2022-10-26T07:24:07;38.28;;;13.05;;
53503;SDS011;39387;50.998;22.340;2022-10-26T07:26:34;36.88;;;12.02;;
53503;SDS011;39387;50.998;22.340;2022-10-26T07:29:02;30.27;;;12.23;;
53503;SDS011;39387;50.998;22.340;2022-10-26T07:31:29;33.85;;;12.23;;
53503;SDS011;39387;50.998;22.340;2022-10-26T07:33:56;34.10;;;12.52;;
53503;SDS011;39387;50.998;22.340;2022-10-26T07:36:27;29.30;;;11.57;;
53503;SDS011;39387;50.998;22.340;2022-10-26T07:38:55;30.27;;;11.00;;
53503;SDS011;39387;50.998;22.340;2022-10-26T07:41:22;34.95;;;13.27;;
53503;SDS011;39387;50.998;22.340;2022-10-26T07:43:49;34.00;;;11.43;;
53503;SDS011;39387;50.998;22.340;2022-10-26T07:46:17;33.38;;;11.68;;
53503;SDS011;39387;50.998;22.340;2022-10-26T07:48:44;27.90;;;10.50;;
53503;SDS011;39387;50.998;22.340;2022-10-26T07:51:12;31.63;;;12.02;;
53503;SDS011;39387;50.998;22.340;2022-10-26T07:53:40;30.92;;;11.55;;
53503;SDS011;39387;50.998;22.340;2022-10-26T07:56:08;29.13;;;11.13;;
53503;SDS011;39387;50.998;22.340;2022-10-26T07:58:35;27.25;;;11.10;;
53503;SDS011;39387;50.998;22.340;2022-10-26T08:01:06;29.67;;;11.52;;
53503;SDS011;39387;50.998;22.340;2022-10-26T08:03:34;31.80;;;12.50;;
53503;SDS011;39387;50.998;22.340;2022-10-26T08:06:01;27.77;;;11.23;;
53503;SDS011;39387;50.998;22.340;2022-10-26T08:08:29;25.50;;;10.73;;
53503;SDS011;39387;50.998;22.340;2022-10-26T08:10:58;22.75;;;9.55;;
53503;SDS011;39387;50.998;22.340;2022-10-26T08:13:26;21.17;;;10.23;;
53503;SDS011;39387;50.998;22.340;2022-10-26T08:15:56;26.38;;;10.82;;
53503;SDS011;39387;50.998;22.340;2022-10-26T08:18:24;24.13;;;10.98;;
53503;SDS011;39387;50.998;22.340;2022-10-26T08:20:51;25.20;;;10.77;;
53503;SDS011;39387;50.998;22.340;2022-10-26T08:23:19;28.98;;;10.40;;
53503;SDS011;39387;50.998;22.340;2022-10-26T08:25:46;19.77;;;9.48;;
53503;SDS011;39387;50.998;22.340;2022-10-26T08:28:15;18.15;;;8.38;;
53503;SDS011;39387;50.998;22.340;2022-10-26T08:30:42;16.38;;;7.68;;
53503;SDS011;39387;50.998;22.340;2022-10-26T08:33:09;19.05;;;8.52;;
53503;SDS011;39387;50.998;22.340;2022-10-26T08:35:37;19.60;;;8.80;;
53503;SDS011;39387;50.998;22.340;2022-10-26T08:38:04;21.27;;;8.30;;
53503;SDS011;39387;50.998;22.340;2022-10-26T08:40:32;18.75;;;7.68;;
53503;SDS011;39387;50.998;22.340;2022-10-26T08:43:02;18.15;;;7.97;;
53503;SDS011;39387;50.998;22.340;2022-10-26T08:45:35;18.08;;;7.78;;
53503;SDS011;39387;50.998;22.340;2022-10-26T08:48:05;16.08;;;6.93;;
53503;SDS011;39387;50.998;22.340;2022-10-26T08:50:38;16.67;;;7.43;;
53503;SDS011;39387;50.998;22.340;2022-10-26T08:53:10;17.15;;;7.72;;
53503;SDS011;39387;50.998;22.340;2022-10-26T08:55:41;14.55;;;7.32;;
53503;SDS011;39387;50.998;22.340;2022-10-26T08:58:12;15.17;;;7.37;;
53503;SDS011;39387;50.998;22.340;2022-10-26T09:00:43;15.65;;;6.75;;
53503;SDS011;39387;50.998;22.340;2022-10-26T09:03:13;12.95;;;6.53;;
53503;SDS011;39387;50.998;22.340;2022-10-26T09:05:45;12.20;;;6.63;;
53503;SDS011;39387;50.998;22.340;2022-10-26T09:08:16;16.17;;;7.10;;
53503;SDS011;39387;50.998;22.340;2022-10-26T09:10:49;13.60;;;6.50;;
53503;SDS011;39387;50.998;22.340;2022-10-26T09:13:24;14.95;;;6.90;;
53503;SDS011;39387;50.998;22.340;2022-10-26T09:15:59;14.05;;;6.10;;
53503;SDS011;39387;50.998;22.340;2022-10-26T09:18:32;14.13;;;6.75;;
53503;SDS011;39387;50.998;22.340;2022-10-26T09:21:11;11.10;;;5.97;;
53503;SDS011;39387;50.998;22.340;2022-10-26T09:23:47;11.60;;;6.43;;
53503;SDS011;39387;50.998;22.340;2022-10-26T09:26:24;14.23;;;6.50;;
53503;SDS011;39387;50.998;22.340;2022-10-26T09:28:55;12.95;;;6.97;;
53503;SDS011;39387;50.998;22.340;2022-10-26T09:31:25;14.95;;;6.70;;
53503;SDS011;39387;50.998;22.340;2022-10-26T09:33:53;12.88;;;6.55;;
53503;SDS011;39387;50.998;22.340;2022-10-26T09:36:21;14.10;;;6.88;;
53503;SDS011;39387;50.998;22.340;2022-10-26T09:38:50;13.23;;;6.72;;
53503;SDS011;39387;50.998;22.340;2022-10-26T09:41:23;15.40;;;7.22;;
53503;SDS011;39387;50.998;22.340;2022-10-26T09:43:54;15.73;;;7.05;;
53503;SDS011;39387;50.998;22.340;2022-10-26T09:46:24;14.00;;;7.68;;
53503;SDS011;39387;50.998;22.340;2022-10-26T09:48:57;14.60;;;7.07;;
53503;SDS011;39387;50.998;22.340;2022-10-26T09:51:26;14.93;;;8.05;;
53503;SDS011;39387;50.998;22.340;2022-10-26T09:53:54;15.30;;;7.50;;
53503;SDS011;39387;50.998;22.340;2022-10-26T09:56:22;13.63;;;7.38;;
53503;SDS011;39387;50.998;22.340;2022-10-26T09:58:51;14.60;;;6.90;;
53503;SDS011;39387;50.998;22.340;2022-10-26T10:01:27;13.13;;;6.82;;
53503;SDS011;39387;50.998;22.340;2022-10-26T10:04:16;14.13;;;6.63;;
53503;SDS011;39387;50.998;22.340;2022-10-26T10:06:46;14.02;;;6.82;;
53503;SDS011;39387;50.998;22.340;2022-10-26T10:09:14;13.02;;;6.38;;
53503;SDS011;39387;50.998;22.340;2022-10-26T10:11:43;11.18;;;6.65;;
53503;SDS011;39387;50.998;22.340;2022-10-26T10:14:19;14.82;;;7.22;;
53503;SDS011;39387;50.998;22.340;2022-10-26T10:16:52;10.45;;;6.43;;
53503;SDS011;39387;50.998;22.340;2022-10-26T10:19:22;11.35;;;6.60;;
53503;SDS011;39387;50.998;22.340;2022-10-26T10:21:53;11.98;;;6.30;;
53503;SDS011;39387;50.998;22.340;2022-10-26T10:24:25;12.60;;;6.40;;
53503;SDS011;39387;50.998;22.340;2022-10-26T10:26:57;11.38;;;5.75;;
53503;SDS011;39387;50.998;22.340;2022-10-26T10:29:26;11.13;;;6.43;;
53503;SDS011;39387;50.998;22.340;2022-10-26T10:31:55;14.05;;;7.13;;
53503;SDS011;39387;50.998;22.340;2022-10-26T10:34:24;11.60;;;6.85;;
53503;SDS011;39387;50.998;22.340;2022-10-26T10:36:52;11.00;;;6.20;;
53503;SDS011;39387;50.998;22.340;2022-10-26T10:39:34;10.30;;;5.53;;
53503;SDS011;39387;50.998;22.340;2022-10-26T10:42:04;12.20;;;6.72;;
53503;SDS011;39387;50.998;22.340;2022-10-26T10:44:36;9.80;;;5.97;;
53503;SDS011;39387;50.998;22.340;2022-10-26T10:47:04;11.00;;;6.63;;
53503;SDS011;39387;50.998;22.340;2022-10-26T10:49:34;8.40;;;5.03;;
53503;SDS011;39387;50.998;22.340;2022-10-26T10:52:01;8.35;;;5.00;;
53503;SDS011;39387;50.998;22.340;2022-10-26T10:54:29;10.05;;;5.30;;
53503;SDS011;39387;50.998;22.340;2022-10-26T10:57:02;6.93;;;4.85;;
53503;SDS011;39387;50.998;22.340;2022-10-26T10:59:43;7.28;;;4.68;;
53503;SDS011;39387;50.998;22.340;2022-10-26T11:02:39;7.78;;;5.10;;
53503;SDS011;39387;50.998;22.340;2022-10-26T11:05:22;8.02;;;4.82;;
53503;SDS011;39387;50.998;22.340;2022-10-26T11:07:56;8.82;;;4.97;;
53503;SDS011;39387;50.998;22.340;2022-10-26T11:10:30;6.70;;;4.45;;
53503;SDS011;39387;50.998;22.340;2022-10-26T11:13:01;6.40;;;4.60;;
53503;SDS011;39387;50.998;22.340;2022-10-26T11:15:30;6.53;;;4.07;;
53503;SDS011;39387;50.998;22.340;2022-10-26T11:18:01;6.40;;;4.43;;
53503;SDS011;39387;50.998;22.340;2022-10-26T11:20:34;5.55;;;3.80;;
53503;SDS011;39387;50.998;22.340;2022-10-26T11:23:07;8.07;;;3.72;;
53503;SDS011;39387;50.998;22.340;2022-10-26T11:25:37;7.32;;;4.38;;
53503;SDS011;39387;50.998;22.340;2022-10-26T11:28:11;7.40;;;4.22;;
53503;SDS011;39387;50.998;22.340;2022-10-26T11:30:40;6.03;;;3.83;;
53503;SDS011;39387;50.998;22.340;2022-10-26T11:33:13;7.47;;;4.55;;
53503;SDS011;39387;50.998;22.340;2022-10-26T11:35:46;7.07;;;4.85;;
53503;SDS011;39387;50.998;22.340;2022-10-26T11:38:21;6.40;;;4.20;;
53503;SDS011;39387;50.998;22.340;2022-10-26T11:40:51;6.68;;;4.35;;
53503;SDS011;39387;50.998;22.340;2022-10-26T11:43:24;7.28;;;4.30;;
53503;SDS011;39387;50.998;22.340;2022-10-26T11:45:57;5.65;;;4.53;;
53503;SDS011;39387;50.998;22.340;2022-10-26T11:48:30;6.57;;;3.85;;
53503;SDS011;39387;50.998;22.340;2022-10-26T11:51:01;8.23;;;4.60;;
53503;SDS011;39387;50.998;22.340;2022-10-26T11:53:29;5.63;;;3.92;;
53503;SDS011;39387;50.998;22.340;2022-10-26T11:55:58;6.70;;;3.95;;
53503;SDS011;39387;50.998;22.340;2022-10-26T11:58:26;5.43;;;3.75;;
53503;SDS011;39387;50.998;22.340;2022-10-26T12:00:54;4.65;;;3.53;;
53503;SDS011;39387;50.998;22.340;2022-10-26T12:03:24;4.97;;;3.35;;
53503;SDS011;39387;50.998;22.340;2022-10-26T12:05:53;4.95;;;3.65;;
53503;SDS011;39387;50.998;22.340;2022-10-26T12:08:24;5.18;;;3.67;;
53503;SDS011;39387;50.998;22.340;2022-10-26T12:10:56;6.22;;;3.90;;
53503;SDS011;39387;50.998;22.340;2022-10-26T12:13:29;5.22;;;3.42;;
53503;SDS011;39387;50.998;22.340;2022-10-26T12:16:02;6.25;;;3.67;;
53503;SDS011;39387;50.998;22.340;2022-10-26T12:18:42;4.82;;;3.40;;
53503;SDS011;39387;50.998;22.340;2022-10-26T12:21:11;4.15;;;3.20;;
53503;SDS011;39387;50.998;22.340;2022-10-26T12:23:53;5.40;;;3.65;;
53503;SDS011;39387;50.998;22.340;2022-10-26T12:29:30;6.15;;;4.07;;
53503;SDS011;39387;50.998;22.340;2022-10-26T12:32:01;9.23;;;5.68;;
53503;SDS011;39387;50.998;22.340;2022-10-26T12:37:33;8.90;;;4.50;;
53503;SDS011;39387;50.998;22.340;2022-10-26T13:01:38;4.10;;;2.85;;
53503;SDS011;39387;50.998;22.340;2022-10-26T13:07:33;6.63;;;3.63;;
53503;SDS011;39387;50.998;22.340;2022-10-26T13:10:02;5.70;;;3.20;;
53503;SDS011;39387;50.998;22.340;2022-10-26T13:12:36;7.18;;;4.97;;
53503;SDS011;39387;50.998;22.340;2022-10-26T13:15:17;7.53;;;4.72;;
53503;SDS011;39387;50.998;22.340;2022-10-26T13:20:19;6.78;;;3.70;;
53503;SDS011;39387;50.998;22.340;2022-10-26T13:22:46;5.32;;;3.63;;
53503;SDS011;39387;50.998;22.340;2022-10-26T13:25:17;5.65;;;3.38;;
53503;SDS011;39387;50.998;22.340;2022-10-26T13:27:57;8.23;;;4.43;;
53503;SDS011;39387;50.998;22.340;2022-10-26T13:33:20;9.20;;;5.57;;
53503;SDS011;39387;50.998;22.340;2022-10-26T13:35:52;8.70;;;4.90;;
53503;SDS011;39387;50.998;22.340;2022-10-26T13:38:22;7.20;;;4.00;;
53503;SDS011;39387;50.998;22.340;2022-10-26T13:40:52;6.63;;;4.18;;
53503;SDS011;39387;50.998;22.340;2022-10-26T13:43:27;4.13;;;3.08;;
53503;SDS011;39387;50.998;22.340;2022-10-26T13:45:55;4.95;;;3.40;;
53503;SDS011;39387;50.998;22.340;2022-10-26T13:48:27;4.47;;;3.35;;
53503;SDS011;39387;50.998;22.340;2022-10-26T13:51:00;6.22;;;3.67;;
53503;SDS011;39387;50.998;22.340;2022-10-26T13:53:33;4.87;;;3.77;;
53503;SDS011;39387;50.998;22.340;2022-10-26T13:56:05;4.30;;;3.30;;
53503;SDS011;39387;50.998;22.340;2022-10-26T13:58:40;3.97;;;2.70;;
53503;SDS011;39387;50.998;22.340;2022-10-26T14:01:14;5.13;;;3.10;;
53503;SDS011;39387;50.998;22.340;2022-10-26T14:03:42;4.63;;;3.10;;
53503;SDS011;39387;50.998;22.340;2022-10-26T14:06:13;5.60;;;3.10;;
53503;SDS011;39387;50.998;22.340;2022-10-26T14:08:43;5.60;;;3.22;;
53503;SDS011;39387;50.998;22.340;2022-10-26T14:11:14;5.75;;;3.85;;
53503;SDS011;39387;50.998;22.340;2022-10-26T14:13:45;4.55;;;3.63;;
53503;SDS011;39387;50.998;22.340;2022-10-26T14:16:14;5.07;;;3.33;;
53503;SDS011;39387;50.998;22.340;2022-10-26T14:18:43;5.68;;;3.53;;
53503;SDS011;39387;50.998;22.340;2022-10-26T14:21:12;5.25;;;3.70;;
53503;SDS011;39387;50.998;22.340;2022-10-26T14:23:44;6.63;;;3.83;;
53503;SDS011;39387;50.998;22.340;2022-10-26T14:26:18;6.47;;;3.38;;
53503;SDS011;39387;50.998;22.340;2022-10-26T14:28:48;7.40;;;4.22;;
53503;SDS011;39387;50.998;22.340;2022-10-26T14:31:20;7.43;;;3.90;;
53503;SDS011;39387;50.998;22.340;2022-10-26T14:33:48;5.90;;;3.78;;
53503;SDS011;39387;50.998;22.340;2022-10-26T14:36:16;7.53;;;3.85;;
53503;SDS011;39387;50.998;22.340;2022-10-26T14:38:46;5.90;;;3.90;;
53503;SDS011;39387;50.998;22.340;2022-10-26T14:41:17;5.53;;;3.92;;
53503;SDS011;39387;50.998;22.340;2022-10-26T14:43:45;5.35;;;3.75;;
53503;SDS011;39387;50.998;22.340;2022-10-26T14:46:14;6.00;;;3.72;;
53503;SDS011;39387;50.998;22.340;2022-10-26T14:48:49;3.97;;;3.08;;
53503;SDS011;39387;50.998;22.340;2022-10-26T14:51:18;4.43;;;3.25;;
53503;SDS011;39387;50.998;22.340;2022-10-26T14:53:47;6.30;;;3.72;;
53503;SDS011;39387;50.998;22.340;2022-10-26T14:56:17;6.65;;;3.75;;
53503;SDS011;39387;50.998;22.340;2022-10-26T14:58:48;5.90;;;3.55;;
53503;SDS011;39387;50.998;22.340;2022-10-26T15:01:27;5.32;;;3.42;;
53503;SDS011;39387;50.998;22.340;2022-10-26T15:03:56;5.38;;;3.33;;
53503;SDS011;39387;50.998;22.340;2022-10-26T15:12:04;4.05;;;3.00;;
53503;SDS011;39387;50.998;22.340;2022-10-26T15:14:32;5.18;;;3.30;;
53503;SDS011;39387;50.998;22.340;2022-10-26T15:17:01;4.22;;;3.13;;
53503;SDS011;39387;50.998;22.340;2022-10-26T15:19:28;4.55;;;3.00;;
53503;SDS011;39387;50.998;22.340;2022-10-26T15:21:56;5.63;;;3.70;;
53503;SDS011;39387;50.998;22.340;2022-10-26T15:24:28;6.20;;;3.90;;
53503;SDS011;39387;50.998;22.340;2022-10-26T15:26:58;7.43;;;4.50;;
53503;SDS011;39387;50.998;22.340;2022-10-26T15:29:35;6.85;;;4.32;;
53503;SDS011;39387;50.998;22.340;2022-10-26T15:32:16;9.45;;;5.65;;
53503;SDS011;39387;50.998;22.340;2022-10-26T15:34:46;9.50;;;6.15;;